createdAt,value
2022-12-29T00:00:26.352Z,-0.46
2022-12-29T00:01:26.328Z,-0.48
2022-12-29T00:02:25.567Z,-0.54
2022-12-29T00:03:26.337Z,-0.54
2022-12-29T00:04:26.229Z,-0.50
2022-12-29T00:05:26.443Z,-0.50
2022-12-29T00:06:25.598Z,-0.47
2022-12-29T00:07:26.450Z,-0.54
2022-12-29T00:08:26.208Z,-0.54
2022-12-29T00:09:25.500Z,-0.54
2022-12-29T00:10:26.206Z,-0.47
2022-12-29T00:11:25.458Z,-0.43
2022-12-29T00:12:26.317Z,-0.53
2022-12-29T00:13:26.268Z,-0.63
2022-12-29T00:14:26.498Z,-0.74
2022-12-29T00:15:26.337Z,-0.72
2022-12-29T00:16:26.260Z,-0.68
2022-12-29T00:17:25.486Z,-0.57
2022-12-29T00:18:26.169Z,-0.53
2022-12-29T00:19:25.418Z,-0.48
2022-12-29T00:20:26.248Z,-0.54
2022-12-29T00:21:25.968Z,-0.74
2022-12-29T00:22:26.266Z,-0.91
2022-12-29T00:23:26.075Z,-0.98
2022-12-29T00:24:26.233Z,-1.06
2022-12-29T00:25:26.067Z,-1.09
2022-12-29T00:26:26.187Z,-1.12
2022-12-29T00:27:25.317Z,-1.13
2022-12-29T00:28:26.678Z,-1.23
2022-12-29T00:29:26.107Z,-1.34
2022-12-29T00:30:25.268Z,-1.39
2022-12-29T00:31:26.027Z,-1.45
2022-12-29T00:32:25.848Z,-1.47
2022-12-29T00:33:26.137Z,-1.41
2022-12-29T00:34:26.027Z,-1.36
2022-12-29T00:35:26.139Z,-1.34
2022-12-29T00:36:25.866Z,-1.34
2022-12-29T00:37:25.229Z,-1.31
2022-12-29T00:38:26.761Z,-1.29
2022-12-29T00:39:26.157Z,-1.30
2022-12-29T00:40:25.928Z,-1.27
2022-12-29T00:41:26.079Z,-1.24
2022-12-29T00:42:25.830Z,-1.29
2022-12-29T00:43:25.154Z,-1.29
2022-12-29T00:44:25.919Z,-1.23
2022-12-29T00:45:26.058Z,-1.26
2022-12-29T00:46:25.303Z,-1.23
2022-12-29T00:47:25.981Z,-1.19
2022-12-29T00:48:25.097Z,-1.15
2022-12-29T00:49:25.707Z,-1.13
2022-12-29T00:50:25.937Z,-1.13
2022-12-29T00:51:25.679Z,-1.13
2022-12-29T00:52:25.924Z,-1.12
2022-12-29T00:53:25.707Z,-1.19
2022-12-29T00:54:25.870Z,-1.23
2022-12-29T00:55:25.737Z,-1.21
2022-12-29T00:56:25.942Z,-1.23
2022-12-29T00:57:25.087Z,-1.21
2022-12-29T00:58:25.800Z,-1.19
2022-12-29T00:59:25.715Z,-1.19
2022-12-29T01:00:25.803Z,-1.21
2022-12-29T01:01:25.812Z,-1.23
2022-12-29T01:02:26.087Z,-1.19
2022-12-29T01:03:25.737Z,-1.21
2022-12-29T01:04:25.564Z,-1.26
2022-12-29T01:05:24.950Z,-1.33
2022-12-29T01:06:25.547Z,-1.31
2022-12-29T01:07:25.767Z,-1.34
2022-12-29T01:08:25.588Z,-1.45
2022-12-29T01:09:25.830Z,-1.55
2022-12-29T01:10:25.546Z,-1.72
2022-12-29T01:11:25.716Z,-1.81
2022-12-29T01:12:25.548Z,-1.88
2022-12-29T01:13:24.849Z,-1.93
2022-12-29T01:14:25.590Z,-1.98
2022-12-29T01:15:25.618Z,-2.02
2022-12-29T01:16:25.631Z,-2.05
2022-12-29T01:17:25.687Z,-2.09
2022-12-29T01:18:24.807Z,-2.08
2022-12-29T01:19:26.162Z,-2.11
2022-12-29T01:20:25.557Z,-2.09
2022-12-29T01:21:25.428Z,-2.04
2022-12-29T01:22:25.530Z,-2.01
2022-12-29T01:23:25.335Z,-1.93
2022-12-29T01:24:25.667Z,-1.93
2022-12-29T01:25:25.478Z,-1.91
2022-12-29T01:26:25.509Z,-1.91
2022-12-29T01:27:25.402Z,-1.94
2022-12-29T01:28:26.363Z,-1.87
2022-12-29T01:29:25.406Z,-1.80
2022-12-29T01:30:25.589Z,-1.77
2022-12-29T01:31:25.494Z,-1.70
2022-12-29T01:32:25.582Z,-1.66
2022-12-29T01:33:25.460Z,-1.65
2022-12-29T01:34:25.409Z,-1.60
2022-12-29T01:35:25.377Z,-1.60
2022-12-29T01:36:24.668Z,-1.60
2022-12-29T01:37:25.328Z,-1.60
2022-12-29T01:38:25.188Z,-1.57
2022-12-29T01:39:25.497Z,-1.62
2022-12-29T01:40:25.218Z,-1.67
2022-12-29T01:41:25.328Z,-1.67
2022-12-29T01:42:25.409Z,-1.69
2022-12-29T01:43:25.363Z,-1.65
2022-12-29T01:44:24.573Z,-1.59
2022-12-29T01:45:25.400Z,-1.54
2022-12-29T01:46:25.314Z,-1.51
2022-12-29T01:47:25.410Z,-1.49
2022-12-29T01:48:25.338Z,-1.44
2022-12-29T01:49:25.424Z,-1.41
2022-12-29T01:50:24.519Z,-1.44
2022-12-29T01:51:25.426Z,-1.48
2022-12-29T01:52:25.207Z,-1.47
2022-12-29T01:53:25.228Z,-1.44
2022-12-29T01:54:25.237Z,-1.45
2022-12-29T01:55:25.048Z,-1.42
2022-12-29T01:56:25.268Z,-1.41
2022-12-29T01:57:24.440Z,-1.48
2022-12-29T01:58:25.711Z,-1.44
2022-12-29T01:59:24.576Z,-1.47
2022-12-29T02:00:24.390Z,-1.42
2022-12-29T02:01:25.359Z,-1.37
2022-12-29T02:02:25.255Z,-1.31
2022-12-29T02:03:25.119Z,-1.27
2022-12-29T02:04:25.148Z,-1.26
2022-12-29T02:05:24.393Z,-1.23
2022-12-29T02:06:25.128Z,-1.24
2022-12-29T02:07:25.033Z,-1.23
2022-12-29T02:08:25.219Z,-1.18
2022-12-29T02:09:25.007Z,-1.19
2022-12-29T02:10:24.972Z,-1.18
2022-12-29T02:11:24.326Z,-1.18
2022-12-29T02:12:25.719Z,-1.34
2022-12-29T02:13:25.040Z,-1.37
2022-12-29T02:14:24.903Z,-1.34
2022-12-29T02:15:25.089Z,-1.45
2022-12-29T02:16:24.957Z,-1.60
2022-12-29T02:17:24.226Z,-1.62
2022-12-29T02:18:24.847Z,-1.59
2022-12-29T02:19:25.118Z,-1.55
2022-12-29T02:20:24.179Z,-1.57
2022-12-29T02:21:24.957Z,-1.59
2022-12-29T02:22:24.958Z,-1.63
2022-12-29T02:23:24.147Z,-1.77
2022-12-29T02:24:24.986Z,-1.83
2022-12-29T02:25:24.693Z,-1.83
2022-12-29T02:26:24.945Z,-1.77
2022-12-29T02:27:24.177Z,-1.69
2022-12-29T02:28:25.015Z,-1.63
2022-12-29T02:29:24.100Z,-1.63
2022-12-29T02:30:24.960Z,-1.65
2022-12-29T02:31:24.152Z,-1.65
2022-12-29T02:32:24.835Z,-1.57
2022-12-29T02:33:24.789Z,-1.57
2022-12-29T02:34:24.067Z,-1.60
2022-12-29T02:35:24.717Z,-1.54
2022-12-29T02:36:24.949Z,-1.47
2022-12-29T02:37:24.947Z,-1.48
2022-12-29T02:38:24.048Z,-1.48
2022-12-29T02:39:26.051Z,-1.44
2022-12-29T02:40:24.796Z,-1.39
2022-12-29T02:41:24.757Z,-1.33
2022-12-29T02:42:25.617Z,-1.29
2022-12-29T02:43:24.958Z,-1.26
2022-12-29T02:44:24.677Z,-1.24
2022-12-29T02:45:24.793Z,-1.21
2022-12-29T02:46:24.040Z,-1.21
2022-12-29T02:47:24.709Z,-1.19
2022-12-29T02:48:24.769Z,-1.15
2022-12-29T02:49:24.766Z,-1.11
2022-12-29T02:50:24.604Z,-1.06
2022-12-29T02:51:24.707Z,-1.05
2022-12-29T02:52:24.631Z,-1.02
2022-12-29T02:53:24.697Z,-1.03
2022-12-29T02:54:24.648Z,-1.11
2022-12-29T02:55:24.779Z,-1.09
2022-12-29T02:56:24.792Z,-1.06
2022-12-29T02:57:24.401Z,-1.06
2022-12-29T02:58:24.605Z,-1.03
2022-12-29T02:59:24.405Z,-1.05
2022-12-29T03:00:24.750Z,-1.16
2022-12-29T03:01:23.904Z,-1.13
2022-12-29T03:02:25.309Z,-1.09
2022-12-29T03:03:24.471Z,-1.05
2022-12-29T03:04:23.767Z,-1.06
2022-12-29T03:05:24.546Z,-1.00
2022-12-29T03:06:24.594Z,-0.95
2022-12-29T03:07:24.415Z,-0.98
2022-12-29T03:08:24.536Z,-1.00
2022-12-29T03:09:24.564Z,-0.94
2022-12-29T03:10:23.676Z,-0.93
2022-12-29T03:11:24.997Z,-0.94
2022-12-29T03:12:24.527Z,-0.94
2022-12-29T03:13:24.384Z,-0.90
2022-12-29T03:14:24.227Z,-0.90
2022-12-29T03:15:23.935Z,-0.94
2022-12-29T03:16:24.632Z,-1.02
2022-12-29T03:17:24.419Z,-1.08
2022-12-29T03:18:24.000Z,-1.03
2022-12-29T03:19:24.779Z,-1.00
2022-12-29T03:20:24.447Z,-1.02
2022-12-29T03:21:23.569Z,-1.13
2022-12-29T03:22:24.294Z,-1.19
2022-12-29T03:23:24.375Z,-1.26
2022-12-29T03:24:24.247Z,-1.23
2022-12-29T03:25:24.344Z,-1.21
2022-12-29T03:26:24.312Z,-1.26
2022-12-29T03:27:24.474Z,-1.18
2022-12-29T03:28:24.240Z,-1.19
2022-12-29T03:29:24.089Z,-1.30
2022-12-29T03:30:25.265Z,-1.31
2022-12-29T03:31:24.123Z,-1.36
2022-12-29T03:32:24.255Z,-1.37
2022-12-29T03:33:24.178Z,-1.42
2022-12-29T03:34:24.254Z,-1.44
2022-12-29T03:35:24.075Z,-1.36
2022-12-29T03:36:24.216Z,-1.30
2022-12-29T03:37:24.085Z,-1.27
2022-12-29T03:38:24.223Z,-1.21
2022-12-29T03:39:24.186Z,-1.21
2022-12-29T03:40:24.155Z,-1.16
2022-12-29T03:41:24.079Z,-1.15
2022-12-29T03:42:24.230Z,-1.11
2022-12-29T03:43:24.107Z,-1.09
2022-12-29T03:44:23.964Z,-1.18
2022-12-29T03:45:24.068Z,-1.19
2022-12-29T03:46:23.356Z,-1.29
2022-12-29T03:47:24.155Z,-1.31
2022-12-29T03:48:23.305Z,-1.39
2022-12-29T03:49:24.147Z,-1.39
2022-12-29T03:50:23.275Z,-1.33
2022-12-29T03:51:24.018Z,-1.36
2022-12-29T03:52:23.943Z,-1.39
2022-12-29T03:53:24.108Z,-1.42
2022-12-29T03:54:24.070Z,-1.42
2022-12-29T03:55:24.183Z,-1.44
2022-12-29T03:56:23.935Z,-1.42
2022-12-29T03:57:24.055Z,-1.55
2022-12-29T03:58:23.195Z,-1.62
2022-12-29T03:59:24.205Z,-1.52
2022-12-29T04:00:23.906Z,-1.57
2022-12-29T04:01:23.987Z,-1.63
2022-12-29T04:02:23.346Z,-1.60
2022-12-29T04:03:24.742Z,-1.52
2022-12-29T04:04:23.929Z,-1.49
2022-12-29T04:05:23.764Z,-1.60
2022-12-29T04:06:23.936Z,-1.65
2022-12-29T04:07:23.145Z,-1.62
2022-12-29T04:08:23.920Z,-1.55
2022-12-29T04:09:23.791Z,-1.49
2022-12-29T04:10:23.929Z,-1.45
2022-12-29T04:11:27.099Z,-1.44
2022-12-29T04:12:23.903Z,-1.42
2022-12-29T04:13:23.745Z,-1.37
2022-12-29T04:14:23.806Z,-1.37
2022-12-29T04:15:23.928Z,-1.36
2022-12-29T04:16:23.674Z,-1.34
2022-12-29T04:17:23.006Z,-1.31
2022-12-29T04:18:23.701Z,-1.27
2022-12-29T04:19:22.995Z,-1.29
2022-12-29T04:20:24.438Z,-1.26
2022-12-29T04:21:23.778Z,-1.26
2022-12-29T04:22:23.613Z,-1.23
2022-12-29T04:23:23.859Z,-1.24
2022-12-29T04:24:23.769Z,-1.24
2022-12-29T04:25:23.876Z,-1.23
2022-12-29T04:26:23.596Z,-1.26
2022-12-29T04:27:23.686Z,-1.24
2022-12-29T04:28:23.575Z,-1.24
2022-12-29T04:29:23.771Z,-1.34
2022-12-29T04:30:23.587Z,-1.34
2022-12-29T04:31:23.869Z,-1.31
2022-12-29T04:32:23.620Z,-1.34
2022-12-29T04:33:23.685Z,-1.37
2022-12-29T04:34:23.616Z,-1.36
2022-12-29T04:35:23.530Z,-1.34
2022-12-29T04:36:29.497Z,-1.39
2022-12-29T04:37:23.511Z,-1.37
2022-12-29T04:38:22.801Z,-1.31
2022-12-29T04:39:23.427Z,-1.29
2022-12-29T04:40:23.615Z,-1.26
2022-12-29T04:41:23.508Z,-1.29
2022-12-29T04:42:22.756Z,-1.23
2022-12-29T04:43:24.266Z,-1.08
2022-12-29T04:44:23.087Z,-1.02
2022-12-29T04:45:22.737Z,-1.02
2022-12-29T04:46:23.661Z,-0.93
2022-12-29T04:47:23.522Z,-0.91
2022-12-29T04:48:23.287Z,-0.95
2022-12-29T04:49:22.696Z,-0.95
2022-12-29T04:50:24.400Z,-0.97
2022-12-29T04:51:23.269Z,-0.97
2022-12-29T04:52:22.715Z,-0.98
2022-12-29T04:53:24.196Z,-0.98
2022-12-29T04:54:23.433Z,-1.03
2022-12-29T04:55:23.448Z,-1.06
2022-12-29T04:56:23.436Z,-1.09
2022-12-29T04:57:23.460Z,-1.13
2022-12-29T04:58:23.359Z,-1.12
2022-12-29T04:59:24.208Z,-1.23
2022-12-29T05:00:23.469Z,-1.26
2022-12-29T05:01:22.716Z,-1.24
2022-12-29T05:02:24.958Z,-1.27
2022-12-29T05:03:23.555Z,-1.26
2022-12-29T05:04:22.569Z,-1.26
2022-12-29T05:05:24.155Z,-1.31
2022-12-29T05:06:23.274Z,-1.34
2022-12-29T05:07:22.508Z,-1.33
2022-12-29T05:08:28.066Z,-1.30
2022-12-29T05:09:23.019Z,-1.33
2022-12-29T05:10:22.501Z,-1.30
2022-12-29T05:11:23.966Z,-1.30
2022-12-29T05:12:23.207Z,-1.16
2022-12-29T05:13:22.444Z,-0.94
2022-12-29T05:14:24.716Z,-0.71
2022-12-29T05:15:23.121Z,-0.53
2022-12-29T05:16:23.426Z,-0.50
2022-12-29T05:17:22.429Z,-0.48
2022-12-29T05:18:23.213Z,-0.50
2022-12-29T05:19:23.178Z,-0.48
2022-12-29T05:20:23.155Z,-0.55
2022-12-29T05:21:23.107Z,-0.60
2022-12-29T05:22:22.962Z,-0.66
2022-12-29T05:23:22.351Z,-0.78
2022-12-29T05:24:23.049Z,-0.93
2022-12-29T05:25:23.261Z,-0.93
2022-12-29T05:26:23.057Z,-0.95
2022-12-29T05:27:23.097Z,-0.95
2022-12-29T05:28:22.999Z,-1.00
2022-12-29T05:29:23.069Z,-0.98
2022-12-29T05:30:23.148Z,-0.93
2022-12-29T05:31:23.267Z,-0.93
2022-12-29T05:32:23.051Z,-0.84
2022-12-29T05:33:23.260Z,-0.78
2022-12-29T05:34:22.239Z,-0.74
2022-12-29T05:35:23.018Z,-0.72
2022-12-29T05:36:22.223Z,-0.71
2022-12-29T05:37:24.379Z,-0.71
2022-12-29T05:38:23.727Z,-0.72
2022-12-29T05:39:22.182Z,-0.75
2022-12-29T05:40:23.702Z,-0.76
2022-12-29T05:41:23.811Z,-0.81
2022-12-29T05:42:24.027Z,-0.94
2022-12-29T05:43:23.280Z,-0.98
2022-12-29T05:44:22.944Z,-0.87
2022-12-29T05:45:22.878Z,-0.83
2022-12-29T05:46:22.960Z,-0.79
2022-12-29T05:47:22.118Z,-0.61
2022-12-29T05:48:23.797Z,-0.47
2022-12-29T05:49:22.964Z,-0.19
2022-12-29T05:50:22.069Z,0.22
2022-12-29T05:51:23.866Z,0.86
2022-12-29T05:52:22.624Z,1.01
2022-12-29T05:53:22.060Z,1.16
2022-12-29T05:54:22.097Z,1.63
2022-12-29T05:55:22.777Z,1.56
2022-12-29T05:56:22.668Z,1.47
2022-12-29T05:57:22.798Z,1.38
2022-12-29T05:58:21.994Z,1.40
2022-12-29T05:59:22.897Z,1.47
2022-12-29T06:00:22.858Z,1.67
2022-12-29T06:01:22.901Z,1.26
2022-12-29T06:02:22.924Z,0.91
2022-12-29T06:03:22.843Z,0.53
2022-12-29T06:04:22.820Z,0.33
2022-12-29T06:05:22.761Z,0.18
2022-12-29T06:06:21.908Z,0.06
2022-12-29T06:07:22.639Z,-0.03
2022-12-29T06:08:22.611Z,-0.06
2022-12-29T06:09:22.657Z,-0.14
2022-12-29T06:10:22.660Z,-0.19
2022-12-29T06:11:22.648Z,-0.32
2022-12-29T06:12:22.682Z,-0.40
2022-12-29T06:13:22.508Z,-0.51
2022-12-29T06:14:22.687Z,-0.60
2022-12-29T06:15:22.628Z,-0.65
2022-12-29T06:16:22.663Z,-0.69
2022-12-29T06:17:22.519Z,-0.79
2022-12-29T06:18:22.547Z,-0.91
2022-12-29T06:19:22.521Z,-1.06
2022-12-29T06:20:22.582Z,-1.09
2022-12-29T06:21:22.698Z,-1.06
2022-12-29T06:22:22.547Z,-1.05
2022-12-29T06:23:22.688Z,-1.11
2022-12-29T06:24:22.353Z,-1.06
2022-12-29T06:25:22.456Z,-1.05
2022-12-29T06:26:21.718Z,-1.03
2022-12-29T06:27:22.492Z,-1.06
2022-12-29T06:28:22.452Z,-1.13
2022-12-29T06:29:21.719Z,-1.23
2022-12-29T06:30:22.381Z,-1.27
2022-12-29T06:31:22.633Z,-1.21
2022-12-29T06:32:22.718Z,-1.26
2022-12-29T06:33:22.471Z,-1.29
2022-12-29T06:34:22.459Z,-1.24
2022-12-29T06:35:22.418Z,-1.24
2022-12-29T06:36:22.300Z,-1.19
2022-12-29T06:37:22.493Z,-1.15
2022-12-29T06:38:22.994Z,-1.18
2022-12-29T06:39:21.637Z,-1.15
2022-12-29T06:40:22.332Z,-1.00
2022-12-29T06:41:26.910Z,-1.05
2022-12-29T06:42:23.000Z,-1.05
2022-12-29T06:43:22.178Z,-1.08
2022-12-29T06:44:21.568Z,-1.08
2022-12-29T06:45:22.140Z,-1.23
2022-12-29T06:46:22.344Z,-1.33
2022-12-29T06:47:22.149Z,-1.29
2022-12-29T06:48:22.490Z,-1.30
2022-12-29T06:49:23.378Z,-1.33
2022-12-29T06:50:21.499Z,-1.33
2022-12-29T06:51:22.384Z,-1.33
2022-12-29T06:52:22.219Z,-1.30
2022-12-29T06:53:22.203Z,-1.27
2022-12-29T06:54:22.227Z,-1.29
2022-12-29T06:55:22.403Z,-1.24
2022-12-29T06:56:22.747Z,-1.21
2022-12-29T06:57:22.167Z,-1.16
2022-12-29T06:58:21.992Z,-1.08
2022-12-29T06:59:22.218Z,-1.06
2022-12-29T07:00:23.172Z,-1.16
2022-12-29T07:01:22.362Z,-1.13
2022-12-29T07:02:21.658Z,-1.16
2022-12-29T07:03:22.232Z,-1.26
2022-12-29T07:04:22.831Z,-1.47
2022-12-29T07:05:22.189Z,-1.54
2022-12-29T07:06:23.338Z,-1.51
2022-12-29T07:07:22.101Z,-1.49
2022-12-29T07:08:22.987Z,-1.62
2022-12-29T07:09:22.799Z,-1.57
2022-12-29T07:10:22.060Z,-1.62
2022-12-29T07:11:22.738Z,-1.60
2022-12-29T07:12:22.809Z,-1.69
2022-12-29T07:13:21.975Z,-1.59
2022-12-29T07:14:22.044Z,-1.55
2022-12-29T07:15:22.321Z,-1.62
2022-12-29T07:16:21.336Z,-1.59
2022-12-29T07:17:21.237Z,-1.54
2022-12-29T07:18:21.198Z,-1.49
2022-12-29T07:19:21.857Z,-1.45
2022-12-29T07:20:26.745Z,-1.41
2022-12-29T07:21:21.859Z,-1.33
2022-12-29T07:22:22.157Z,-1.27
2022-12-29T07:23:21.155Z,-1.18
2022-12-29T07:24:21.143Z,-1.21
2022-12-29T07:25:21.538Z,-1.16
2022-12-29T07:26:21.907Z,-1.16
2022-12-29T07:27:21.122Z,-1.15
2022-12-29T07:28:21.959Z,-1.11
2022-12-29T07:29:22.488Z,-1.05
2022-12-29T07:30:22.541Z,-0.97
2022-12-29T07:31:22.065Z,-0.90
2022-12-29T07:32:21.137Z,-0.97
2022-12-29T07:33:22.467Z,-0.93
2022-12-29T07:34:21.028Z,-0.93
2022-12-29T07:35:22.532Z,-0.87
2022-12-29T07:36:21.020Z,-0.87
2022-12-29T07:37:22.043Z,-0.83
2022-12-29T07:38:21.786Z,-0.76
2022-12-29T07:39:20.987Z,-0.71
2022-12-29T07:40:21.968Z,-0.65
2022-12-29T07:41:21.957Z,-0.61
2022-12-29T07:42:22.432Z,-0.58
2022-12-29T07:43:21.576Z,-0.60
2022-12-29T07:44:22.727Z,-0.66
2022-12-29T07:45:21.108Z,-0.61
2022-12-29T07:46:54.083Z,-0.61
2022-12-29T07:47:22.057Z,-0.58
2022-12-29T07:48:22.067Z,-0.58
2022-12-29T07:49:21.801Z,-0.60
2022-12-29T07:50:20.913Z,-0.60
2022-12-29T07:51:22.428Z,-0.57
2022-12-29T07:52:21.878Z,-0.51
2022-12-29T07:53:21.641Z,-0.50
2022-12-29T07:54:21.798Z,-0.40
2022-12-29T07:55:20.868Z,-0.39
2022-12-29T07:56:21.790Z,-0.39
2022-12-29T07:57:23.932Z,-0.33
2022-12-29T07:58:22.232Z,-0.33
2022-12-29T07:59:21.616Z,-0.25
2022-12-29T08:00:20.777Z,-0.22
2022-12-29T08:01:20.921Z,-0.17
2022-12-29T08:02:20.916Z,-0.18
2022-12-29T08:03:21.855Z,-0.12
2022-12-29T08:04:21.303Z,-0.11
2022-12-29T08:05:21.823Z,0.00
2022-12-29T08:06:21.737Z,0.04
2022-12-29T08:07:22.306Z,0.03
2022-12-29T08:08:22.327Z,0.00
2022-12-29T08:09:24.060Z,0.06
2022-12-29T08:10:20.681Z,0.04
2022-12-29T08:11:22.318Z,0.12
2022-12-29T08:12:20.707Z,0.27
2022-12-29T08:13:20.641Z,0.36
2022-12-29T08:14:20.628Z,0.37
2022-12-29T08:15:22.616Z,0.33
2022-12-29T08:16:20.915Z,0.62
2022-12-29T08:17:22.395Z,0.66
2022-12-29T08:18:20.587Z,0.59
2022-12-29T08:19:22.489Z,0.72
2022-12-29T08:20:21.933Z,0.91
2022-12-29T08:21:21.197Z,1.12
2022-12-29T08:22:22.135Z,1.38
2022-12-29T08:23:22.037Z,1.40
2022-12-29T08:24:21.338Z,1.51
2022-12-29T08:25:20.579Z,1.36
2022-12-29T08:26:21.400Z,1.41
2022-12-29T08:27:21.448Z,1.56
2022-12-29T08:28:21.808Z,1.72
2022-12-29T08:29:20.538Z,1.79
2022-12-29T08:30:22.296Z,1.63
2022-12-29T08:31:22.324Z,1.66
2022-12-29T08:32:20.459Z,1.72
2022-12-29T08:33:21.691Z,1.77
2022-12-29T08:34:21.629Z,1.65
2022-12-29T08:35:21.216Z,1.63
2022-12-29T08:36:20.415Z,1.52
2022-12-29T08:37:24.988Z,1.58
2022-12-29T08:38:22.015Z,1.65
2022-12-29T08:39:20.376Z,1.85
2022-12-29T08:40:20.478Z,2.10
2022-12-29T08:41:21.179Z,2.16
2022-12-29T08:42:20.345Z,2.10
2022-12-29T08:43:21.248Z,2.02
2022-12-29T08:44:22.028Z,2.39
2022-12-29T08:45:22.116Z,2.70
2022-12-29T08:46:22.287Z,2.89
2022-12-29T08:47:21.894Z,3.06
2022-12-29T08:48:20.288Z,3.17
2022-12-29T08:49:20.295Z,3.36
2022-12-29T08:50:21.907Z,3.51
2022-12-29T08:51:24.703Z,3.66
2022-12-29T08:52:21.038Z,3.70
2022-12-29T08:53:21.267Z,3.68
2022-12-29T08:54:20.229Z,3.58
2022-12-29T08:55:21.858Z,3.54
2022-12-29T08:56:20.209Z,3.86
2022-12-29T08:57:20.267Z,4.88
2022-12-29T08:58:21.339Z,5.77
2022-12-29T08:59:21.966Z,6.39
2022-12-29T09:00:20.180Z,6.92
2022-12-29T09:01:21.175Z,7.13
2022-12-29T09:02:24.486Z,7.25
2022-12-29T09:03:37.831Z,7.72
2022-12-29T09:04:20.271Z,8.20
2022-12-29T09:05:20.869Z,8.42
2022-12-29T09:06:21.709Z,8.70
2022-12-29T09:07:20.909Z,8.96
2022-12-29T09:08:26.223Z,9.03
2022-12-29T09:09:21.114Z,8.54
2022-12-29T09:10:21.822Z,7.73
2022-12-29T09:11:21.052Z,7.28
2022-12-29T09:12:22.032Z,6.65
2022-12-29T09:13:20.988Z,6.18
2022-12-29T09:14:21.605Z,6.00
2022-12-29T09:15:21.637Z,5.97
2022-12-29T09:16:21.548Z,5.79
2022-12-29T09:17:20.796Z,5.72
2022-12-29T09:18:21.776Z,5.64
2022-12-29T09:19:20.615Z,5.67
2022-12-29T09:20:21.011Z,5.80
2022-12-29T09:21:19.975Z,6.18
2022-12-29T09:22:21.392Z,6.11
2022-12-29T09:23:21.316Z,5.92
2022-12-29T09:24:20.146Z,5.77
2022-12-29T09:25:21.807Z,5.80
2022-12-29T09:26:19.926Z,6.55
2022-12-29T09:27:20.521Z,7.88
2022-12-29T09:28:20.871Z,7.83
2022-12-29T09:29:20.567Z,7.52
2022-12-29T09:30:19.907Z,7.34
2022-12-29T09:31:20.708Z,7.11
2022-12-29T09:32:21.059Z,6.88
2022-12-29T09:33:20.628Z,6.85
2022-12-29T09:34:20.610Z,7.07
2022-12-29T09:35:19.826Z,7.28
2022-12-29T09:36:19.866Z,7.94
2022-12-29T09:37:19.821Z,9.02
2022-12-29T09:38:19.809Z,9.55
2022-12-29T09:39:20.598Z,10.16
2022-12-29T09:40:20.869Z,10.72
2022-12-29T09:41:19.756Z,10.49
2022-12-29T09:42:19.868Z,10.26
2022-12-29T09:43:19.788Z,9.76
2022-12-29T09:44:20.376Z,9.61
2022-12-29T09:45:20.647Z,9.11
2022-12-29T09:46:19.761Z,9.21
2022-12-29T09:47:21.347Z,10.28
2022-12-29T09:48:21.555Z,10.92
2022-12-29T09:49:20.523Z,11.68
2022-12-29T09:50:21.166Z,11.20
2022-12-29T09:51:20.680Z,12.07
2022-12-29T09:52:20.622Z,12.54
2022-12-29T09:53:19.725Z,12.20
2022-12-29T09:54:21.436Z,11.97
2022-12-29T09:55:20.641Z,11.20
2022-12-29T09:56:20.907Z,11.10
2022-12-29T09:57:19.634Z,10.62
2022-12-29T09:58:21.068Z,9.94
2022-12-29T09:59:21.477Z,9.69
2022-12-29T10:00:19.611Z,9.73
2022-12-29T10:01:19.670Z,11.20
2022-12-29T10:02:22.164Z,11.51
2022-12-29T10:03:21.355Z,11.43
2022-12-29T10:04:19.536Z,11.72
2022-12-29T10:05:21.549Z,11.69
2022-12-29T10:06:20.770Z,11.74
2022-12-29T10:07:29.756Z,12.45
2022-12-29T10:08:20.576Z,13.49
2022-12-29T10:09:19.476Z,13.71
2022-12-29T10:10:19.572Z,13.46
2022-12-29T10:11:19.515Z,12.65
2022-12-29T10:12:20.846Z,11.79
2022-12-29T10:13:20.466Z,10.87
2022-12-29T10:14:19.481Z,10.85
2022-12-29T10:15:20.896Z,10.35
2022-12-29T10:16:20.048Z,9.90
2022-12-29T10:17:19.407Z,9.08
2022-12-29T10:18:20.899Z,8.59
2022-12-29T10:19:19.784Z,8.15
2022-12-29T10:20:19.458Z,7.53
2022-12-29T10:21:20.771Z,6.98
2022-12-29T10:22:20.337Z,6.67
2022-12-29T10:23:19.414Z,6.48
2022-12-29T10:24:20.899Z,6.81
2022-12-29T10:25:19.983Z,7.46
2022-12-29T10:26:19.321Z,7.93
2022-12-29T10:27:20.697Z,8.48
2022-12-29T10:28:20.355Z,9.57
2022-12-29T10:29:19.300Z,10.72
2022-12-29T10:30:20.932Z,10.95
2022-12-29T10:31:20.456Z,11.11
2022-12-29T10:32:19.259Z,11.26
2022-12-29T10:33:20.845Z,11.40
2022-12-29T10:34:20.360Z,10.22
2022-12-29T10:35:19.279Z,9.58
2022-12-29T10:36:19.213Z,9.29
2022-12-29T10:37:19.196Z,8.75
2022-12-29T10:38:21.173Z,8.39
2022-12-29T10:39:24.916Z,8.21
2022-12-29T10:40:20.955Z,7.93
2022-12-29T10:41:20.068Z,7.60
2022-12-29T10:42:19.150Z,7.38
2022-12-29T10:43:21.332Z,7.29
2022-12-29T10:44:20.697Z,7.36
2022-12-29T10:45:19.977Z,7.31
2022-12-29T10:46:19.924Z,7.17
2022-12-29T10:47:20.597Z,7.29
2022-12-29T10:48:19.097Z,7.42
2022-12-29T10:49:22.178Z,7.35
2022-12-29T10:50:20.756Z,7.90
2022-12-29T10:51:19.056Z,8.59
2022-12-29T10:52:19.095Z,9.49
2022-12-29T10:53:19.838Z,10.79
2022-12-29T10:54:20.177Z,11.84
2022-12-29T10:55:20.468Z,12.55
2022-12-29T10:56:19.689Z,13.45
2022-12-29T10:57:19.106Z,13.85
2022-12-29T10:58:20.258Z,13.92
2022-12-29T10:59:19.025Z,13.96
2022-12-29T11:00:21.209Z,13.80
2022-12-29T11:01:20.410Z,12.97
2022-12-29T11:02:20.917Z,11.96
2022-12-29T11:03:18.981Z,10.78
2022-12-29T11:04:18.987Z,9.98
2022-12-29T11:05:18.997Z,9.93
2022-12-29T11:06:20.389Z,9.24
2022-12-29T11:07:25.035Z,8.82
2022-12-29T11:08:19.740Z,8.82
2022-12-29T11:09:19.676Z,8.85
2022-12-29T11:10:19.459Z,8.62
2022-12-29T11:11:20.358Z,8.45
2022-12-29T11:12:19.495Z,8.23
2022-12-29T11:13:20.747Z,8.12
2022-12-29T11:14:20.468Z,8.38
2022-12-29T11:15:19.631Z,8.60
2022-12-29T11:16:20.062Z,8.93
2022-12-29T11:17:19.705Z,8.88
2022-12-29T11:18:19.592Z,8.67
2022-12-29T11:19:19.712Z,8.69
2022-12-29T11:20:19.532Z,8.41
2022-12-29T11:21:20.207Z,8.04
2022-12-29T11:22:20.129Z,7.83
2022-12-29T11:23:18.757Z,7.60
2022-12-29T11:24:19.915Z,7.29
2022-12-29T11:25:20.689Z,7.23
2022-12-29T11:26:19.604Z,7.42
2022-12-29T11:27:20.307Z,7.32
2022-12-29T11:28:19.727Z,7.36
2022-12-29T11:29:19.389Z,6.92
2022-12-29T11:30:19.482Z,6.62
2022-12-29T11:31:20.364Z,6.75
2022-12-29T11:32:24.157Z,6.89
2022-12-29T11:33:19.497Z,7.10
2022-12-29T11:34:19.956Z,7.20
2022-12-29T11:35:19.386Z,7.21
2022-12-29T11:36:19.460Z,7.20
2022-12-29T11:37:19.967Z,6.84
2022-12-29T11:38:19.401Z,6.81
2022-12-29T11:39:20.037Z,6.84
2022-12-29T11:40:20.527Z,6.84
2022-12-29T11:41:19.426Z,6.88
2022-12-29T11:42:19.137Z,6.91
2022-12-29T11:43:19.442Z,6.84
2022-12-29T11:44:19.676Z,6.84
2022-12-29T11:45:18.519Z,6.88
2022-12-29T11:46:20.183Z,6.91
2022-12-29T11:47:19.617Z,6.44
2022-12-29T11:48:18.495Z,6.22
2022-12-29T11:49:19.437Z,6.16
2022-12-29T11:50:18.476Z,6.04
2022-12-29T11:51:24.989Z,5.90
2022-12-29T11:52:20.108Z,6.08
2022-12-29T11:53:19.458Z,6.34
2022-12-29T11:54:18.447Z,6.55
2022-12-29T11:55:19.590Z,6.70
2022-12-29T11:56:18.469Z,6.83
2022-12-29T11:57:19.586Z,6.81
2022-12-29T11:58:18.488Z,6.83
2022-12-29T11:59:19.037Z,6.81
2022-12-29T12:00:18.420Z,6.88
2022-12-29T12:01:19.872Z,6.83
2022-12-29T12:02:19.446Z,6.80
2022-12-29T12:03:20.024Z,6.85
2022-12-29T12:04:18.507Z,7.00
2022-12-29T12:05:18.298Z,6.95
2022-12-29T12:06:19.999Z,6.91
2022-12-29T12:07:19.628Z,6.91
2022-12-29T12:08:21.031Z,6.96
2022-12-29T12:09:18.359Z,6.89
2022-12-29T12:10:18.245Z,6.60
2022-12-29T12:11:19.721Z,6.67
2022-12-29T12:12:18.582Z,6.48
2022-12-29T12:13:18.265Z,6.60
2022-12-29T12:14:19.840Z,6.60
2022-12-29T12:15:19.892Z,6.55
2022-12-29T12:16:18.272Z,6.48
2022-12-29T12:17:18.177Z,6.19
2022-12-29T12:18:19.841Z,5.95
2022-12-29T12:19:18.719Z,5.77
2022-12-29T12:20:18.210Z,5.64
2022-12-29T12:21:20.019Z,5.59
2022-12-29T12:22:19.317Z,5.61
2022-12-29T12:23:18.118Z,5.69
2022-12-29T12:24:20.023Z,5.50
2022-12-29T12:25:19.115Z,5.31
2022-12-29T12:26:18.156Z,5.29
2022-12-29T12:27:18.102Z,5.10
2022-12-29T12:28:20.317Z,4.98
2022-12-29T12:29:19.681Z,5.04
2022-12-29T12:30:18.075Z,5.14
2022-12-29T12:31:18.042Z,5.32
2022-12-29T12:32:20.197Z,5.43
2022-12-29T12:33:19.712Z,5.40
2022-12-29T12:34:18.339Z,5.43
2022-12-29T12:35:21.990Z,5.39
2022-12-29T12:36:19.037Z,5.39
2022-12-29T12:37:17.969Z,5.32
2022-12-29T12:38:19.411Z,5.19
2022-12-29T12:39:19.207Z,5.11
2022-12-29T12:40:18.576Z,4.86
2022-12-29T12:41:21.969Z,5.03
2022-12-29T12:42:18.885Z,5.03
2022-12-29T12:43:18.189Z,5.06
2022-12-29T12:44:19.481Z,5.06
2022-12-29T12:45:18.657Z,5.07
2022-12-29T12:46:18.339Z,5.21
2022-12-29T12:47:19.599Z,5.07
2022-12-29T12:48:18.997Z,5.13
2022-12-29T12:49:17.858Z,5.21
2022-12-29T12:50:18.127Z,5.44
2022-12-29T12:51:19.558Z,5.49
2022-12-29T12:52:18.699Z,5.54
2022-12-29T12:53:17.817Z,5.67
2022-12-29T12:54:19.317Z,5.49
2022-12-29T12:55:18.571Z,5.53
2022-12-29T12:56:17.794Z,5.11
2022-12-29T12:57:19.560Z,5.25
2022-12-29T12:58:19.018Z,5.29
2022-12-29T12:59:17.787Z,5.19
2022-12-29T13:00:19.599Z,5.17
2022-12-29T13:01:18.880Z,5.14